Time;durP1;ratioP1;P1;durP2;ratioP2;P2;SDS_P1;SDS_P2;PMS_P1;PMS_P2;Temp;Humidity;BMP_temperature;BMP_pressure;BME280_temperature;BME280_humidity;BME280_pressure;Samples;Min_cycle;Max_cycle;Signal;HPM_P1;HPM_P2
2021/08/19 00:00:45;;;;;;;10.15;6.03;;;;;;;;;;1083215;54;20029;-65
2021/08/19 00:01:49;;;;;;;8.80;5.50;;;;;;;;;;1083241;54;20034;-65
2021/08/19 00:02:50;;;;;;;8.65;5.78;;;;;;;;;;1083686;39;20428;-64
2021/08/19 00:03:53;;;;;;;10.20;5.15;;;;;;;;;;1083214;54;20031;-64
2021/08/19 00:04:54;;;;;;;9.05;5.28;;;;;;;;;;1083236;54;20572;-65
2021/08/19 00:05:58;;;;;;;11.52;5.63;;;;;;;;;;1083201;54;20030;-65
2021/08/19 00:06:59;;;;;;;9.90;5.10;;;;;;;;;;1083204;54;20054;-64
2021/08/19 00:08:02;;;;;;;9.50;5.45;;;;;;;;;;1083206;54;20030;-64
2021/08/19 00:09:04;;;;;;;9.23;4.90;;;;;;;;;;1083178;54;20038;-64
2021/08/19 00:10:10;;;;;;;9.60;4.90;;;;;;;;;;1083222;54;20030;-64
2021/08/19 00:11:12;;;;;;;9.48;5.00;;;;;;;;;;1083705;39;20405;-64
2021/08/19 00:12:16;;;;;;;10.40;5.25;;;;;;;;;;1083641;39;20089;-64
2021/08/19 00:13:19;;;;;;;9.70;5.55;;;;;;;;;;1083219;54;20038;-65
2021/08/19 00:14:23;;;;;;;10.10;4.82;;;;;;;;;;1083626;39;20432;-65
2021/08/19 00:15:24;;;;;;;9.95;5.30;;;;;;;;;;1083210;54;20026;-64
2021/08/19 00:16:27;;;;;;;8.77;5.00;;;;;;;;;;1083224;54;20031;-64
2021/08/19 00:17:28;;;;;;;9.57;5.20;;;;;;;;;;1083137;54;20030;-65
2021/08/19 00:18:32;;;;;;;9.60;4.80;;;;;;;;;;1083204;54;20026;-65
2021/08/19 00:19:34;;;;;;;8.52;4.63;;;;;;;;;;1083201;54;20042;-64
2021/08/19 00:20:40;;;;;;;7.72;4.90;;;;;;;;;;1083186;54;20037;-64
2021/08/19 00:21:41;;;;;;;9.65;5.22;;;;;;;;;;1083205;54;20113;-64
2021/08/19 00:22:44;;;;;;;9.80;4.97;;;;;;;;;;1083213;54;20031;-64
2021/08/19 00:23:45;;;;;;;7.38;4.70;;;;;;;;;;1083139;54;20038;-64
2021/08/19 00:24:49;;;;;;;9.10;4.97;;;;;;;;;;1083204;54;20031;-64
2021/08/19 00:25:50;;;;;;;8.93;5.47;;;;;;;;;;1083173;54;20019;-64
2021/08/19 00:26:54;;;;;;;8.32;4.70;;;;;;;;;;1083173;54;20548;-65
2021/08/19 00:27:55;;;;;;;9.95;4.95;;;;;;;;;;1083186;54;20027;-65
2021/08/19 00:29:01;;;;;;;8.75;4.82;;;;;;;;;;1083196;54;20029;-65
2021/08/19 00:30:03;;;;;;;8.95;4.97;;;;;;;;;;1083137;54;20033;-65
2021/08/19 00:31:06;;;;;;;8.18;4.75;;;;;;;;;;1083214;54;20018;-65
2021/08/19 00:32:08;;;;;;;10.77;5.50;;;;;;;;;;1083163;54;20037;-65
2021/08/19 00:33:12;;;;;;;9.10;5.25;;;;;;;;;;1083196;54;20033;-65
2021/08/19 00:34:13;;;;;;;10.48;5.13;;;;;;;;;;1083153;54;20038;-64
2021/08/19 00:35:17;;;;;;;9.38;5.55;;;;;;;;;;1083182;54;20031;-65
2021/08/19 00:36:21;;;;;;;8.52;5.07;;;;;;;;;;1083171;54;20027;-65
2021/08/19 00:37:22;;;;;;;7.18;4.72;;;;;;;;;;1083176;54;20057;-64
2021/08/19 00:38:26;;;;;;;7.85;5.10;;;;;;;;;;1083619;39;20509;-65
2021/08/19 00:39:27;;;;;;;9.50;5.10;;;;;;;;;;1083176;54;20034;-65
2021/08/19 00:40:31;;;;;;;7.45;4.90;;;;;;;;;;1083188;54;20031;-65
2021/08/19 00:41:32;;;;;;;9.23;4.85;;;;;;;;;;1083883;31;20508;-64
2021/08/19 00:42:36;;;;;;;8.75;4.80;;;;;;;;;;1082898;47;20056;-64
2021/08/19 00:43:38;;;;;;;9.02;5.50;;;;;;;;;;1082963;54;20026;-65
2021/08/19 00:44:45;;;;;;;9.55;5.00;;;;;;;;;;1083143;54;20035;-64
2021/08/19 00:45:46;;;;;;;8.18;4.80;;;;;;;;;;1083178;54;20061;-65
2021/08/19 00:46:50;;;;;;;8.93;5.15;;;;;;;;;;1083142;54;20034;-64
2021/08/19 00:47:51;;;;;;;7.38;5.00;;;;;;;;;;1083159;54;20033;-64
2021/08/19 00:48:57;;;;;;;8.98;4.82;;;;;;;;;;1083135;54;20030;-64
2021/08/19 00:50:00;;;;;;;8.52;4.88;;;;;;;;;;1083611;39;20503;-64
2021/08/19 00:51:04;;;;;;;8.25;5.07;;;;;;;;;;1083175;54;20037;-64
2021/08/19 00:52:06;;;;;;;12.07;5.18;;;;;;;;;;1083515;39;20436;-65
2021/08/19 00:53:11;;;;;;;7.93;4.70;;;;;;;;;;1083184;54;20037;-64
2021/08/19 00:54:14;;;;;;;8.98;5.25;;;;;;;;;;1083152;54;20026;-64
2021/08/19 00:55:19;;;;;;;8.40;4.38;;;;;;;;;;1083172;54;20030;-64
2021/08/19 00:56:20;;;;;;;9.30;4.55;;;;;;;;;;1083140;54;20536;-65
2021/08/19 00:57:23;;;;;;;9.63;4.80;;;;;;;;;;1083118;54;20037;-64
2021/08/19 00:58:27;;;;;;;9.02;4.40;;;;;;;;;;1083151;54;20121;-65
2021/08/19 00:59:28;;;;;;;12.07;4.85;;;;;;;;;;1083609;39;20525;-64
2021/08/19 01:00:35;;;;;;;10.40;5.00;;;;;;;;;;1083141;54;20026;-64
2021/08/19 01:01:37;;;;;;;9.65;4.93;;;;;;;;;;1083224;54;20053;-65
2021/08/19 01:02:50;;;;;;;11.05;4.75;;;;;;;;;;1083180;54;20035;-64
2021/08/19 01:03:53;;;;;;;8.85;4.50;;;;;;;;;;1083146;54;20033;-65
2021/08/19 01:04:56;;;;;;;8.85;5.07;;;;;;;;;;1083174;54;20034;-65
2021/08/19 01:05:58;;;;;;;9.60;4.82;;;;;;;;;;1083133;54;20057;-65
2021/08/19 01:07:02;;;;;;;8.43;4.97;;;;;;;;;;1083105;54;20022;-64
2021/08/19 01:08:03;;;;;;;12.20;4.95;;;;;;;;;;1083126;54;20026;-65
2021/08/19 01:09:07;;;;;;;9.60;5.05;;;;;;;;;;1083119;54;20026;-64
2021/08/19 01:10:10;;;;;;;10.55;4.88;;;;;;;;;;1083172;54;20030;-64
2021/08/19 01:11:13;;;;;;;8.43;4.80;;;;;;;;;;1083156;54;20121;-64
2021/08/19 01:12:14;;;;;;;8.00;4.90;;;;;;;;;;1083116;54;20026;-64
2021/08/19 01:13:18;;;;;;;7.47;4.80;;;;;;;;;;1083272;39;20448;-65
2021/08/19 01:14:19;;;;;;;8.90;4.70;;;;;;;;;;1082830;54;20026;-64
2021/08/19 01:15:23;;;;;;;10.18;4.70;;;;;;;;;;1083161;54;20560;-64
2021/08/19 01:16:28;;;;;;;9.27;4.97;;;;;;;;;;1083092;54;20122;-64
2021/08/19 01:17:32;;;;;;;8.65;5.00;;;;;;;;;;1083120;54;20558;-65
2021/08/19 01:18:40;;;;;;;9.32;4.82;;;;;;;;;;1083582;39;20104;-65
2021/08/19 01:19:47;;;;;;;10.57;5.30;;;;;;;;;;1083149;54;20027;-64
2021/08/19 01:20:48;;;;;;;9.65;4.88;;;;;;;;;;1083135;54;20023;-64
2021/08/19 01:21:53;;;;;;;9.80;5.05;;;;;;;;;;1083559;39;20456;-65
2021/08/19 01:22:55;;;;;;;8.27;5.07;;;;;;;;;;1083109;54;20540;-65
2021/08/19 01:23:59;;;;;;;9.70;4.70;;;;;;;;;;1083091;54;20563;-65
2021/08/19 01:25:00;;;;;;;8.07;4.60;;;;;;;;;;1083107;54;20114;-65
2021/08/19 01:26:08;;;;;;;10.00;5.22;;;;;;;;;;1083121;54;20038;-65
2021/08/19 01:27:16;;;;;;;8.25;4.93;;;;;;;;;;1083072;54;20026;-64
2021/08/19 01:28:18;;;;;;;10.00;4.90;;;;;;;;;;1083111;54;20053;-65
2021/08/19 01:29:21;;;;;;;7.20;4.78;;;;;;;;;;1083050;54;20087;-64
2021/08/19 01:30:24;;;;;;;8.05;4.43;;;;;;;;;;1083096;54;20035;-65
2021/08/19 01:31:29;;;;;;;11.20;5.10;;;;;;;;;;1083090;54;20035;-64
2021/08/19 01:32:32;;;;;;;9.57;5.32;;;;;;;;;;1083117;54;20034;-65
2021/08/19 01:33:36;;;;;;;9.27;4.80;;;;;;;;;;1083092;54;20030;-65
2021/08/19 01:34:41;;;;;;;9.93;4.80;;;;;;;;;;1083077;54;20026;-65
2021/08/19 01:35:44;;;;;;;8.02;4.72;;;;;;;;;;1083076;54;20027;-65
2021/08/19 01:36:47;;;;;;;10.57;5.25;;;;;;;;;;1083048;54;20030;-65
2021/08/19 01:37:49;;;;;;;7.97;4.70;;;;;;;;;;1083808;31;20501;-65
2021/08/19 01:38:53;;;;;;;8.25;4.68;;;;;;;;;;1083102;54;20030;-65
2021/08/19 01:39:54;;;;;;;8.18;4.75;;;;;;;;;;1083784;31;20501;-65
2021/08/19 01:40:57;;;;;;;10.98;4.93;;;;;;;;;;1083138;54;20038;-65
2021/08/19 01:42:01;;;;;;;8.32;4.57;;;;;;;;;;1082873;54;20049;-65
2021/08/19 01:43:09;;;;;;;10.07;5.28;;;;;;;;;;1083120;54;20117;-65
2021/08/19 01:44:12;;;;;;;7.18;4.45;;;;;;;;;;1083100;54;20031;-65
2021/08/19 01:45:15;;;;;;;8.43;4.68;;;;;;;;;;1083077;54;20126;-64
2021/08/19 01:46:20;;;;;;;10.45;5.22;;;;;;;;;;1083058;54;20022;-64
2021/08/19 01:47:22;;;;;;;7.18;4.78;;;;;;;;;;1083037;54;20125;-65
2021/08/19 01:48:25;;;;;;;8.63;4.75;;;;;;;;;;1083067;54;20037;-65
2021/08/19 01:49:27;;;;;;;9.63;5.18;;;;;;;;;;1083024;54;20146;-64
2021/08/19 01:50:30;;;;;;;9.90;4.70;;;;;;;;;;1083082;54;20038;-64
2021/08/19 01:51:33;;;;;;;8.25;4.80;;;;;;;;;;1083138;54;20539;-64
2021/08/19 01:52:37;;;;;;;8.20;4.47;;;;;;;;;;1083111;54;20030;-65
2021/08/19 01:53:40;;;;;;;9.30;4.90;;;;;;;;;;1083120;54;20022;-64
2021/08/19 01:54:44;;;;;;;7.50;4.82;;;;;;;;;;1083116;54;20031;-65
2021/08/19 01:55:46;;;;;;;9.32;5.10;;;;;;;;;;1083123;54;20026;-64
2021/08/19 01:56:49;;;;;;;6.60;4.65;;;;;;;;;;1083021;54;20027;-65
2021/08/19 01:57:50;;;;;;;8.27;4.90;;;;;;;;;;1083089;54;20047;-64
2021/08/19 01:58:57;;;;;;;7.82;4.57;;;;;;;;;;1083044;54;20031;-65
2021/08/19 01:59:58;;;;;;;9.38;5.43;;;;;;;;;;1083071;54;20118;-64
2021/08/19 02:01:01;;;;;;;9.02;5.03;;;;;;;;;;1083071;54;20061;-65
2021/08/19 02:02:03;;;;;;;8.05;4.70;;;;;;;;;;1083003;54;20053;-65
2021/08/19 02:03:07;;;;;;;10.35;4.60;;;;;;;;;;1083512;39;20477;-64
2021/08/19 02:04:11;;;;;;;9.55;4.95;;;;;;;;;;1083035;54;20114;-65
2021/08/19 02:05:12;;;;;;;10.38;5.05;;;;;;;;;;1083040;54;20038;-65
2021/08/19 02:06:15;;;;;;;11.65;4.90;;;;;;;;;;1083072;54;20038;-65
2021/08/19 02:07:16;;;;;;;10.48;5.00;;;;;;;;;;1083019;54;20027;-65
2021/08/19 02:08:20;;;;;;;8.35;5.35;;;;;;;;;;1083043;54;20544;-65
2021/08/19 02:09:21;;;;;;;8.68;5.00;;;;;;;;;;1082980;54;20023;-65
2021/08/19 02:10:25;;;;;;;8.90;4.55;;;;;;;;;;1083011;54;20033;-65
2021/08/19 02:11:26;;;;;;;9.93;5.00;;;;;;;;;;1083022;54;20030;-65
2021/08/19 02:12:29;;;;;;;8.68;5.25;;;;;;;;;;1083020;54;20030;-65
2021/08/19 02:13:30;;;;;;;8.82;4.75;;;;;;;;;;1083017;54;20038;-65
2021/08/19 02:14:37;;;;;;;10.57;4.90;;;;;;;;;;1083062;54;20037;-65
2021/08/19 02:15:38;;;;;;;9.77;5.00;;;;;;;;;;1083040;54;20061;-64
2021/08/19 02:16:42;;;;;;;8.20;5.10;;;;;;;;;;1082998;54;20033;-64
2021/08/19 02:17:42;;;;;;;11.75;5.20;;;;;;;;;;1083076;54;20162;-65
2021/08/19 02:18:46;;;;;;;8.13;4.63;;;;;;;;;;1083057;54;20053;-65
2021/08/19 02:19:47;;;;;;;9.68;4.90;;;;;;;;;;1083473;31;20533;-64
2021/08/19 02:20:51;;;;;;;9.27;5.10;;;;;;;;;;1082763;54;20027;-65
2021/08/19 02:21:51;;;;;;;8.63;4.63;;;;;;;;;;1083044;54;20074;-65
2021/08/19 02:23:00;;;;;;;9.18;4.95;;;;;;;;;;1083012;54;20026;-65
2021/08/19 02:24:01;;;;;;;8.10;5.00;;;;;;;;;;1083012;54;20046;-65
2021/08/19 02:25:07;;;;;;;9.48;4.47;;;;;;;;;;1083018;54;20034;-65
2021/08/19 02:26:08;;;;;;;8.57;4.93;;;;;;;;;;1082989;54;20023;-65
2021/08/19 02:27:11;;;;;;;7.80;4.85;;;;;;;;;;1082970;54;20034;-65
2021/08/19 02:28:13;;;;;;;8.15;4.65;;;;;;;;;;1082999;54;20110;-65
2021/08/19 02:29:16;;;;;;;7.95;4.68;;;;;;;;;;1083028;54;20071;-65
2021/08/19 02:30:20;;;;;;;8.27;5.05;;;;;;;;;;1083706;31;20494;-65
2021/08/19 02:31:24;;;;;;;7.85;5.03;;;;;;;;;;1083008;54;20030;-64
2021/08/19 02:32:25;;;;;;;8.63;5.00;;;;;;;;;;1082991;54;20026;-65
2021/08/19 02:33:29;;;;;;;8.35;4.53;;;;;;;;;;1082995;54;20042;-65
2021/08/19 02:34:30;;;;;;;6.85;4.50;;;;;;;;;;1083030;54;20543;-65
2021/08/19 02:35:34;;;;;;;8.18;4.72;;;;;;;;;;1082995;54;20037;-65
2021/08/19 02:36:35;;;;;;;10.07;5.05;;;;;;;;;;1082979;54;20061;-64
2021/08/19 02:37:39;;;;;;;10.30;5.40;;;;;;;;;;1083008;54;20030;-65
2021/08/19 02:38:40;;;;;;;9.73;5.03;;;;;;;;;;1082964;54;20050;-65
2021/08/19 02:39:43;;;;;;;8.55;5.03;;;;;;;;;;1082978;54;20030;-64
2021/08/19 02:40:44;;;;;;;8.98;5.00;;;;;;;;;;1082968;54;20034;-65
2021/08/19 02:41:48;;;;;;;10.30;5.45;;;;;;;;;;1082995;54;20053;-64
2021/08/19 02:42:49;;;;;;;9.10;5.20;;;;;;;;;;1082945;54;20050;-64
2021/08/19 02:43:53;;;;;;;9.40;5.38;;;;;;;;;;1082971;54;20034;-65
2021/08/19 02:44:54;;;;;;;8.90;5.10;;;;;;;;;;1082957;54;20037;-65
2021/08/19 02:46:00;;;;;;;8.25;4.72;;;;;;;;;;1082975;54;20034;-64
2021/08/19 02:47:01;;;;;;;10.82;5.35;;;;;;;;;;1082962;54;20034;-65
2021/08/19 02:48:05;;;;;;;9.40;5.38;;;;;;;;;;1083378;39;20425;-65
2021/08/19 02:49:09;;;;;;;7.43;4.95;;;;;;;;;;1082991;54;20077;-64
2021/08/19 02:50:10;;;;;;;7.78;4.72;;;;;;;;;;1082925;54;20126;-65
2021/08/19 02:51:14;;;;;;;9.82;5.18;;;;;;;;;;1082952;54;20034;-65
2021/08/19 02:52:15;;;;;;;6.93;4.63;;;;;;;;;;1082987;54;20146;-65
2021/08/19 02:53:19;;;;;;;10.43;5.50;;;;;;;;;;1082983;54;20034;-64
2021/08/19 02:54:22;;;;;;;9.18;5.32;;;;;;;;;;1083255;54;20050;-65
2021/08/19 02:55:23;;;;;;;9.10;5.32;;;;;;;;;;1083764;39;20519;-65
2021/08/19 02:56:27;;;;;;;8.50;4.93;;;;;;;;;;1083310;54;20030;-64
2021/08/19 02:57:28;;;;;;;8.57;5.18;;;;;;;;;;1083254;54;20030;-64
2021/08/19 02:58:31;;;;;;;9.27;5.20;;;;;;;;;;1083301;54;20030;-65
2021/08/19 02:59:32;;;;;;;9.68;4.78;;;;;;;;;;1083361;54;20117;-65
2021/08/19 03:00:36;;;;;;;9.10;5.28;;;;;;;;;;1083307;54;20030;-65
2021/08/19 03:01:40;;;;;;;8.40;5.00;;;;;;;;;;1083339;54;20057;-65
2021/08/19 03:02:43;;;;;;;10.13;5.05;;;;;;;;;;1083320;54;20065;-65
2021/08/19 03:03:44;;;;;;;10.00;5.80;;;;;;;;;;1083329;54;20026;-65
2021/08/19 03:04:48;;;;;;;7.95;5.38;;;;;;;;;;1083345;54;20031;-65
2021/08/19 03:05:49;;;;;;;11.10;5.80;;;;;;;;;;1083290;54;20031;-65
2021/08/19 03:06:52;;;;;;;11.27;5.63;;;;;;;;;;1083259;54;20038;-65
2021/08/19 03:07:56;;;;;;;11.20;5.70;;;;;;;;;;1083332;54;20034;-65
2021/08/19 03:08:58;;;;;;;10.85;5.47;;;;;;;;;;1083752;39;20425;-65
2021/08/19 03:10:01;;;;;;;10.30;5.70;;;;;;;;;;1083252;54;20547;-65
2021/08/19 03:11:03;;;;;;;8.75;5.10;;;;;;;;;;1083288;54;20033;-64
2021/08/19 03:12:07;;;;;;;9.10;5.22;;;;;;;;;;1083304;54;20122;-65
2021/08/19 03:13:10;;;;;;;8.57;5.38;;;;;;;;;;1083283;54;20053;-64
2021/08/19 03:14:12;;;;;;;7.97;5.15;;;;;;;;;;1083292;54;20038;-65
2021/08/19 03:15:15;;;;;;;9.07;5.13;;;;;;;;;;1083746;39;20428;-65
2021/08/19 03:16:16;;;;;;;9.32;5.38;;;;;;;;;;1083298;54;20035;-65
2021/08/19 03:17:22;;;;;;;7.38;5.05;;;;;;;;;;1083231;54;20034;-64
2021/08/19 03:18:23;;;;;;;11.48;5.70;;;;;;;;;;1083286;54;20118;-65
2021/08/19 03:19:27;;;;;;;9.15;5.68;;;;;;;;;;1083316;54;20545;-65
2021/08/19 03:20:28;;;;;;;10.27;5.32;;;;;;;;;;1083265;54;20030;-65
2021/08/19 03:21:32;;;;;;;10.75;5.45;;;;;;;;;;1083337;54;20026;-65
2021/08/19 03:22:33;;;;;;;9.60;5.38;;;;;;;;;;1083269;54;20026;-65
2021/08/19 03:23:37;;;;;;;8.70;5.38;;;;;;;;;;1083305;54;20050;-65
2021/08/19 03:24:38;;;;;;;10.10;5.72;;;;;;;;;;1083334;54;20026;-65
2021/08/19 03:25:41;;;;;;;11.07;5.53;;;;;;;;;;1083292;54;20027;-65
2021/08/19 03:26:42;;;;;;;10.35;5.18;;;;;;;;;;1084097;31;20470;-65
2021/08/19 03:27:46;;;;;;;8.73;5.07;;;;;;;;;;1083249;54;20030;-65
2021/08/19 03:28:47;;;;;;;9.65;5.00;;;;;;;;;;1083276;54;20615;-65
2021/08/19 03:29:50;;;;;;;8.75;5.50;;;;;;;;;;1083247;54;20031;-64
2021/08/19 03:30:54;;;;;;;8.18;4.93;;;;;;;;;;1083251;54;20121;-65
2021/08/19 03:31:57;;;;;;;11.45;5.50;;;;;;;;;;1083271;54;20647;-64
2021/08/19 03:33:05;;;;;;;11.00;5.68;;;;;;;;;;1083734;39;20437;-65
2021/08/19 03:34:09;;;;;;;7.90;4.90;;;;;;;;;;1083294;54;20037;-65
2021/08/19 03:35:11;;;;;;;10.00;5.43;;;;;;;;;;1083256;54;20038;-65
2021/08/19 03:36:14;;;;;;;10.93;5.22;;;;;;;;;;1083263;54;20031;-65
2021/08/19 03:37:15;;;;;;;9.93;5.55;;;;;;;;;;1083971;31;20500;-65
2021/08/19 03:38:19;;;;;;;9.30;5.03;;;;;;;;;;1083269;54;20038;-65
2021/08/19 03:39:21;;;;;;;9.82;5.13;;;;;;;;;;1083270;54;20539;-65
2021/08/19 03:40:24;;;;;;;8.80;5.00;;;;;;;;;;1083259;54;20037;-64
2021/08/19 03:41:26;;;;;;;8.35;5.15;;;;;;;;;;1083270;54;20050;-64
2021/08/19 03:42:29;;;;;;;9.13;5.20;;;;;;;;;;1083267;54;20122;-64
2021/08/19 03:43:30;;;;;;;10.52;5.35;;;;;;;;;;1083246;54;20038;-64
2021/08/19 03:44:34;;;;;;;8.50;5.20;;;;;;;;;;1083235;54;20560;-64
2021/08/19 03:45:35;;;;;;;11.77;5.55;;;;;;;;;;1083304;54;20026;-65
2021/08/19 03:46:39;;;;;;;9.13;5.57;;;;;;;;;;1083322;54;20031;-64
2021/08/19 03:47:41;;;;;;;11.15;5.30;;;;;;;;;;1083919;31;20508;-65
2021/08/19 03:48:47;;;;;;;8.68;4.78;;;;;;;;;;1083237;54;20031;-65
2021/08/19 03:49:48;;;;;;;10.57;5.13;;;;;;;;;;1083959;31;20517;-65
2021/08/19 03:50:52;;;;;;;7.97;4.80;;;;;;;;;;1083296;54;20039;-65
2021/08/19 03:51:53;;;;;;;8.93;5.00;;;;;;;;;;1083653;39;20405;-65
2021/08/19 03:52:57;;;;;;;8.15;5.00;;;;;;;;;;1083296;54;20118;-65
2021/08/19 03:53:58;;;;;;;8.85;5.05;;;;;;;;;;1083237;54;20026;-65
2021/08/19 03:55:02;;;;;;;8.93;5.40;;;;;;;;;;1083255;54;20035;-65
2021/08/19 03:56:03;;;;;;;9.85;5.22;;;;;;;;;;1083227;54;20033;-64
2021/08/19 03:57:07;;;;;;;8.40;4.93;;;;;;;;;;1083252;54;20129;-65
2021/08/19 03:58:08;;;;;;;9.48;5.43;;;;;;;;;;1083215;54;20022;-65
2021/08/19 03:59:13;;;;;;;8.52;5.53;;;;;;;;;;1083245;54;20031;-64
2021/08/19 04:00:15;;;;;;;9.52;5.50;;;;;;;;;;1082932;54;20033;-65
2021/08/19 04:01:19;;;;;;;10.02;6.03;;;;;;;;;;1083004;54;20023;-65
2021/08/19 04:02:20;;;;;;;9.25;5.20;;;;;;;;;;1083203;54;20057;-64
2021/08/19 04:03:24;;;;;;;8.65;5.00;;;;;;;;;;1083228;54;20582;-65
2021/08/19 04:04:27;;;;;;;11.45;5.53;;;;;;;;;;1083089;54;20050;-64
2021/08/19 04:05:31;;;;;;;10.93;5.70;;;;;;;;;;1083232;54;20037;-65
2021/08/19 04:06:32;;;;;;;9.13;5.03;;;;;;;;;;1083184;54;20049;-64
2021/08/19 04:07:35;;;;;;;8.90;5.10;;;;;;;;;;1083167;54;20030;-64
2021/08/19 04:08:36;;;;;;;11.10;5.43;;;;;;;;;;1083279;54;20038;-64
2021/08/19 04:09:40;;;;;;;11.65;5.35;;;;;;;;;;1083676;39;20432;-65
2021/08/19 04:10:41;;;;;;;13.23;6.07;;;;;;;;;;1083214;54;20038;-65
2021/08/19 04:11:44;;;;;;;9.35;5.60;;;;;;;;;;1083318;54;20567;-65
2021/08/19 04:12:48;;;;;;;8.68;5.50;;;;;;;;;;1083227;54;20026;-65
2021/08/19 04:13:50;;;;;;;9.50;5.70;;;;;;;;;;1083707;39;20419;-65
2021/08/19 04:14:54;;;;;;;10.02;6.07;;;;;;;;;;1083192;54;20026;-65
2021/08/19 04:15:55;;;;;;;10.80;5.35;;;;;;;;;;1083259;54;20053;-65
2021/08/19 04:16:59;;;;;;;9.88;5.60;;;;;;;;;;1083138;54;20033;-64
2021/08/19 04:17:59;;;;;;;9.27;5.72;;;;;;;;;;1083225;54;20014;-64
2021/08/19 04:19:03;;;;;;;10.32;5.68;;;;;;;;;;1083245;54;20033;-65
2021/08/19 04:20:09;;;;;;;9.85;5.40;;;;;;;;;;1083609;39;20416;-64
2021/08/19 04:21:12;;;;;;;9.93;5.95;;;;;;;;;;1083235;54;20030;-64
2021/08/19 04:22:16;;;;;;;9.70;5.82;;;;;;;;;;1083187;54;20038;-64
2021/08/19 04:23:17;;;;;;;8.75;5.68;;;;;;;;;;1083221;54;20134;-64
2021/08/19 04:24:20;;;;;;;10.85;5.65;;;;;;;;;;1083681;39;20420;-65
2021/08/19 04:25:21;;;;;;;11.45;6.07;;;;;;;;;;1083198;54;20034;-64
2021/08/19 04:26:26;;;;;;;10.50;6.07;;;;;;;;;;1083198;54;20030;-65
2021/08/19 04:27:27;;;;;;;11.25;6.28;;;;;;;;;;1083214;54;20061;-64
2021/08/19 04:28:31;;;;;;;11.25;5.93;;;;;;;;;;1083178;54;20552;-64
2021/08/19 04:29:34;;;;;;;9.38;5.95;;;;;;;;;;1083183;54;20034;-65
2021/08/19 04:30:35;;;;;;;13.30;6.80;;;;;;;;;;1083142;54;20544;-65
2021/08/19 04:31:39;;;;;;;12.48;6.88;;;;;;;;;;1083246;54;20031;-65
2021/08/19 04:32:40;;;;;;;11.68;6.68;;;;;;;;;;1083227;54;20038;-65
2021/08/19 04:33:44;;;;;;;12.60;6.22;;;;;;;;;;1083203;54;20062;-64
2021/08/19 04:34:45;;;;;;;12.90;6.10;;;;;;;;;;1083169;54;20042;-65
2021/08/19 04:35:51;;;;;;;10.50;6.30;;;;;;;;;;1083184;54;20084;-65
2021/08/19 04:36:55;;;;;;;13.05;6.38;;;;;;;;;;1083221;54;20121;-65
2021/08/19 04:37:56;;;;;;;11.15;6.30;;;;;;;;;;1083645;39;20511;-65
2021/08/19 04:39:00;;;;;;;11.88;6.55;;;;;;;;;;1083214;54;20265;-65
2021/08/19 04:40:13;;;;;;;10.55;6.43;;;;;;;;;;1083624;39;20460;-65
2021/08/19 04:41:14;;;;;;;12.32;6.47;;;;;;;;;;1083181;54;20022;-65
2021/08/19 04:42:17;;;;;;;11.75;6.10;;;;;;;;;;1083172;54;20037;-64
2021/08/19 04:43:18;;;;;;;10.80;6.22;;;;;;;;;;1083179;54;20114;-65
2021/08/19 04:44:22;;;;;;;13.00;6.30;;;;;;;;;;1083170;54;20041;-64
2021/08/19 04:45:23;;;;;;;9.90;5.50;;;;;;;;;;1083167;54;20034;-65
2021/08/19 04:46:26;;;;;;;10.70;6.13;;;;;;;;;;1083197;54;20038;-64
2021/08/19 04:47:27;;;;;;;11.30;6.05;;;;;;;;;;1083138;54;20026;-65
2021/08/19 04:48:31;;;;;;;9.82;5.68;;;;;;;;;;1083146;54;20038;-65
2021/08/19 04:49:32;;;;;;;8.85;5.57;;;;;;;;;;1083217;54;20026;-64
2021/08/19 04:50:36;;;;;;;12.10;6.05;;;;;;;;;;1083143;54;20037;-64
2021/08/19 04:51:41;;;;;;;9.93;5.82;;;;;;;;;;1083166;54;20053;-64
2021/08/19 04:52:45;;;;;;;9.93;5.88;;;;;;;;;;1083151;54;20150;-65
2021/08/19 04:53:46;;;;;;;9.25;5.63;;;;;;;;;;1083141;54;20057;-65
2021/08/19 04:54:49;;;;;;;9.30;5.82;;;;;;;;;;1083166;54;20030;-65
2021/08/19 04:55:53;;;;;;;9.05;5.72;;;;;;;;;;1083185;54;20038;-65
2021/08/19 04:56:54;;;;;;;9.68;6.10;;;;;;;;;;1083142;54;20544;-64
2021/08/19 04:57:57;;;;;;;9.10;6.07;;;;;;;;;;1083156;54;20030;-64
2021/08/19 04:58:58;;;;;;;9.85;5.45;;;;;;;;;;1083137;54;20117;-65
2021/08/19 05:00:02;;;;;;;10.73;5.63;;;;;;;;;;1083546;39;20428;-65
2021/08/19 05:01:03;;;;;;;9.63;5.78;;;;;;;;;;1083127;54;20026;-64
2021/08/19 05:02:06;;;;;;;9.20;5.65;;;;;;;;;;1083166;54;20037;-65
2021/08/19 05:03:07;;;;;;;11.88;5.97;;;;;;;;;;1083177;54;20030;-64
2021/08/19 05:04:11;;;;;;;9.70;5.43;;;;;;;;;;1083118;54;20031;-64
2021/08/19 05:05:12;;;;;;;10.77;5.95;;;;;;;;;;1083149;54;20103;-64
2021/08/19 05:06:15;;;;;;;9.75;5.55;;;;;;;;;;1083164;54;20034;-64
2021/08/19 05:07:19;;;;;;;11.63;6.07;;;;;;;;;;1083116;54;20030;-64
2021/08/19 05:08:23;;;;;;;10.52;5.80;;;;;;;;;;1083117;54;20564;-64
2021/08/19 05:09:26;;;;;;;11.10;5.45;;;;;;;;;;1083135;54;20033;-64
2021/08/19 05:10:28;;;;;;;10.52;5.47;;;;;;;;;;1083103;54;20035;-64
2021/08/19 05:11:31;;;;;;;12.63;5.90;;;;;;;;;;1083601;39;20437;-65
2021/08/19 05:12:32;;;;;;;11.18;5.63;;;;;;;;;;1083105;54;20057;-65
2021/08/19 05:13:36;;;;;;;9.75;5.55;;;;;;;;;;1083584;39;20440;-64
2021/08/19 05:14:37;;;;;;;11.98;5.45;;;;;;;;;;1083578;39;20121;-64
2021/08/19 05:15:40;;;;;;;10.52;5.50;;;;;;;;;;1083178;54;20031;-65
2021/08/19 05:16:41;;;;;;;9.80;5.25;;;;;;;;;;1082803;54;20061;-65
2021/08/19 05:17:45;;;;;;;10.73;5.97;;;;;;;;;;1083136;54;20031;-64
2021/08/19 05:18:46;;;;;;;8.85;5.30;;;;;;;;;;1083111;54;20057;-64
2021/08/19 05:19:49;;;;;;;11.65;5.20;;;;;;;;;;1083167;54;20035;-65
2021/08/19 05:20:50;;;;;;;9.70;5.28;;;;;;;;;;1083146;54;20038;-65
2021/08/19 05:21:54;;;;;;;9.65;5.60;;;;;;;;;;1083139;54;20026;-65
2021/08/19 05:23:00;;;;;;;8.35;5.28;;;;;;;;;;1083352;54;20035;-65
2021/08/19 05:24:01;;;;;;;9.45;5.30;;;;;;;;;;1083158;54;20118;-65
2021/08/19 05:25:05;;;;;;;10.75;5.18;;;;;;;;;;1083128;54;20025;-65
2021/08/19 05:26:07;;;;;;;10.23;5.47;;;;;;;;;;1083074;54;20029;-65
2021/08/19 05:27:10;;;;;;;9.32;5.47;;;;;;;;;;1083096;54;20026;-65
2021/08/19 05:28:14;;;;;;;10.82;5.50;;;;;;;;;;1083540;39;20405;-65
2021/08/19 05:29:15;;;;;;;12.73;5.82;;;;;;;;;;1083102;54;20117;-65
2021/08/19 05:30:18;;;;;;;11.30;5.25;;;;;;;;;;1083107;54;20026;-65
2021/08/19 05:31:19;;;;;;;9.27;5.22;;;;;;;;;;1083053;54;20038;-65
2021/08/19 05:32:23;;;;;;;10.50;5.47;;;;;;;;;;1083097;54;20031;-65
2021/08/19 05:33:24;;;;;;;9.43;5.13;;;;;;;;;;1083088;54;20114;-65
2021/08/19 05:34:28;;;;;;;9.23;5.32;;;;;;;;;;1083545;39;20432;-65
2021/08/19 05:35:31;;;;;;;8.27;4.75;;;;;;;;;;1083083;54;20057;-65
2021/08/19 05:36:32;;;;;;;9.73;5.38;;;;;;;;;;1083529;39;20435;-65
2021/08/19 05:37:36;;;;;;;10.23;5.00;;;;;;;;;;1083064;54;20030;-65
2021/08/19 05:38:40;;;;;;;8.73;5.10;;;;;;;;;;1083085;54;20027;-65
2021/08/19 05:39:43;;;;;;;9.05;5.07;;;;;;;;;;1083086;54;20535;-65
2021/08/19 05:40:44;;;;;;;9.07;5.00;;;;;;;;;;1083099;54;20026;-65
2021/08/19 05:41:48;;;;;;;9.38;5.00;;;;;;;;;;1083119;54;20039;-65
2021/08/19 05:42:49;;;;;;;10.27;5.10;;;;;;;;;;1083079;54;20117;-65
2021/08/19 05:43:53;;;;;;;10.05;5.65;;;;;;;;;;1083565;39;20446;-65
2021/08/19 05:44:56;;;;;;;7.72;5.00;;;;;;;;;;1083055;54;20038;-65
2021/08/19 05:45:57;;;;;;;8.85;5.20;;;;;;;;;;1083089;54;20039;-65
2021/08/19 05:47:01;;;;;;;11.60;5.32;;;;;;;;;;1083087;54;20031;-65
2021/08/19 05:48:05;;;;;;;10.18;5.28;;;;;;;;;;1083072;54;20026;-65
2021/08/19 05:49:09;;;;;;;7.38;4.70;;;;;;;;;;1083064;54;20031;-65
2021/08/19 05:50:10;;;;;;;8.25;4.85;;;;;;;;;;1083062;54;20627;-65
2021/08/19 05:51:14;;;;;;;10.20;5.95;;;;;;;;;;1083042;54;20548;-65
2021/08/19 05:52:15;;;;;;;9.18;5.22;;;;;;;;;;1083056;54;20110;-65
2021/08/19 05:53:19;;;;;;;9.90;4.85;;;;;;;;;;1083073;54;20038;-65
2021/08/19 05:54:22;;;;;;;8.73;5.10;;;;;;;;;;1083048;54;20521;-65
2021/08/19 05:55:26;;;;;;;10.25;5.20;;;;;;;;;;1083079;54;20057;-65
2021/08/19 05:56:27;;;;;;;9.55;4.97;;;;;;;;;;1083070;54;20121;-65
2021/08/19 05:57:31;;;;;;;10.60;5.15;;;;;;;;;;1082993;54;20054;-65
2021/08/19 05:58:32;;;;;;;10.45;5.30;;;;;;;;;;1083177;46;20046;-65
2021/08/19 05:59:35;;;;;;;9.95;5.60;;;;;;;;;;1083059;54;20026;-65
2021/08/19 06:00:36;;;;;;;8.85;5.32;;;;;;;;;;1083044;54;20038;-65
2021/08/19 06:01:41;;;;;;;9.18;5.40;;;;;;;;;;1083066;54;20030;-65
2021/08/19 06:02:42;;;;;;;9.25;5.60;;;;;;;;;;1083103;54;20026;-65
2021/08/19 06:03:46;;;;;;;8.40;4.95;;;;;;;;;;1083815;31;20521;-65
2021/08/19 06:04:50;;;;;;;8.35;4.93;;;;;;;;;;1083091;54;20118;-65
2021/08/19 06:05:53;;;;;;;9.65;5.20;;;;;;;;;;1083185;46;20042;-65
2021/08/19 06:06:54;;;;;;;10.95;5.45;;;;;;;;;;1083026;54;20130;-65
2021/08/19 06:07:58;;;;;;;9.52;5.25;;;;;;;;;;1083432;39;20413;-65
2021/08/19 06:09:01;;;;;;;8.48;5.15;;;;;;;;;;1083024;54;20121;-65
2021/08/19 06:10:06;;;;;;;10.00;5.35;;;;;;;;;;1083763;31;20512;-65
2021/08/19 06:11:09;;;;;;;9.90;5.50;;;;;;;;;;1082992;54;20561;-65
2021/08/19 06:12:13;;;;;;;9.80;5.32;;;;;;;;;;1083008;54;20038;-65
2021/08/19 06:13:14;;;;;;;10.80;5.38;;;;;;;;;;1083015;54;20050;-65
2021/08/19 06:14:18;;;;;;;9.77;5.72;;;;;;;;;;1083045;54;20074;-65
2021/08/19 06:15:19;;;;;;;9.18;5.57;;;;;;;;;;1083041;54;20034;-65